メインページ
METAR-TAF:

METAR-TAF

空港 :

フォール=ド=フランス, マルティニーク

マルティニーク・エメ・セゼール国際空港

緯度: 14-36N, 経度: 061-00W, 海抜: 5m

現時点の気象観測

当レポートは36分前の21:00(UTC)に作成
東/南東の風 14kt
気温 29°C
湿度 66%
気圧 1012 hPa
視程10km以上
高度3200ftの雲はほとんどない

METAR: TFFF 232100Z AUTO 11014KT 9999 FEW032 29/22 Q1012 NOSIG

時間: 17:36 (21:36 UTC)

予報

当レポートは4時間36分前の17:00(UTC)に作成
予報は23日の 18時(UTC)から 24日の 18時(UTC)まで有効
南/南東の風 10kt
視程10km以上
高度3300ftの雲は散在している
高度5000ftの雲は散在している
23日の 22時(UTC)から 23日の 24時(UTC)まで徐々に
の風 6kt
24日の 06時(UTC)から 24日の 18時(UTC)まで一時的に
視程: 4000m
高度2000ftの雲は散在している, 塔状積雲.
にわか雨

TAF: TFFF 231700Z 2318/2418 15010KT 9999 SCT033 SCT050 BECMG 2322/2324 09006KT TEMPO 2406/2418 4000 SHRA SCT020TCU

4,000以上の空港の気象観測と天気予報(METAR報とTAF報)

利用可能な観測所は地図上に黄色い丸と赤い丸で示す。

丸の上にカーソルを重ねると観測所名を参照できる。

次にクリックすると気象観測と天気予報を参照できる。

マップの切り替え:黒色「×」印の緑ボタンをクリックして拡大、「-」印の緑ボタンをクリックして縮小、緑色の三角印をクリックして隣りの地図に切り替え


METAR-TAF: